Time;durP1;ratioP1;P1;durP2;ratioP2;P2;SDS_P1;SDS_P2;PMS_P1;PMS_P2;Temp;Humidity;BMP_temperature;BMP_pressure;BME280_temperature;BME280_humidity;BME280_pressure;Samples;Min_cycle;Max_cycle;Signal;HPM_P1;HPM_P2
2021/08/25 11:55:34;;;;;;;7.55;4.43;;;;;;;;;;5070665;28;20686;-74
2021/08/25 11:58:00;;;;;;;4.63;4.07;;;;;;;;;;5070692;28;20219;-74
2021/08/25 12:00:37;;;;;;;5.07;3.72;;;;;;;;;;5070628;28;20176;-74
2021/08/25 12:03:04;;;;;;;5.18;3.83;;;;;;;;;;5070567;28;20164;-74
2021/08/25 12:05:32;;;;;;;7.03;3.65;;;;;;;;;;5070470;28;20233;-74
2021/08/25 12:08:14;;;;;;;5.03;4.05;;;;;;;;;;5070378;28;20183;-74
2021/08/25 12:10:44;;;;;;;4.68;3.63;;;;;;;;;;5070327;28;20243;-74
2021/08/25 12:13:11;;;;;;;4.68;4.28;;;;;;;;;;5070203;28;20168;-74
2021/08/25 12:15:50;;;;;;;5.63;3.92;;;;;;;;;;5070199;28;20167;-74
2021/08/25 12:18:16;;;;;;;8.40;4.10;;;;;;;;;;5070183;28;20167;-74
2021/08/25 12:20:44;;;;;;;8.93;4.18;;;;;;;;;;5068860;28;20204;-75
2021/08/25 12:23:11;;;;;;;4.20;3.63;;;;;;;;;;5070124;28;20172;-74
2021/08/25 12:25:38;;;;;;;9.23;4.28;;;;;;;;;;5070111;28;20206;-74
2021/08/25 12:28:05;;;;;;;7.07;4.03;;;;;;;;;;5069996;28;20217;-74
2021/08/25 12:30:35;;;;;;;4.60;4.20;;;;;;;;;;5068718;28;20270;-74
2021/08/25 12:33:04;;;;;;;6.43;4.35;;;;;;;;;;5069917;28;20255;-74
2021/08/25 12:35:31;;;;;;;7.72;4.65;;;;;;;;;;5069882;28;20625;-74
2021/08/25 12:37:57;;;;;;;4.43;3.78;;;;;;;;;;5069773;28;20213;-74
2021/08/25 12:40:23;;;;;;;5.60;4.90;;;;;;;;;;5068492;28;20645;-74
2021/08/25 12:42:50;;;;;;;5.88;5.00;;;;;;;;;;5069671;28;20584;-74
2021/08/25 12:45:16;;;;;;;10.35;5.70;;;;;;;;;;5068491;28;20168;-74
2021/08/25 12:47:42;;;;;;;8.85;6.32;;;;;;;;;;5069566;28;20179;-74
2021/08/25 12:50:09;;;;;;;5.55;4.97;;;;;;;;;;5068233;28;20168;-74
2021/08/25 12:52:35;;;;;;;7.72;6.10;;;;;;;;;;5069542;28;20174;-74
2021/08/25 12:55:01;;;;;;;8.85;6.15;;;;;;;;;;5069174;28;20578;-74
2021/08/25 12:57:27;;;;;;;11.18;7.60;;;;;;;;;;5069364;28;20164;-74
2021/08/25 12:59:53;;;;;;;7.63;5.60;;;;;;;;;;5069283;28;20625;-74
2021/08/25 13:02:18;;;;;;;8.00;5.63;;;;;;;;;;5069289;28;20183;-74
2021/08/25 13:04:44;;;;;;;9.00;5.03;;;;;;;;;;5067902;28;20685;-74
2021/08/25 13:07:11;;;;;;;11.80;6.22;;;;;;;;;;5055722;28;20168;-74
2021/08/25 13:09:38;;;;;;;10.25;5.97;;;;;;;;;;5054677;28;20578;-74
2021/08/25 13:12:04;;;;;;;9.02;5.55;;;;;;;;;;5055902;28;20247;-74
2021/08/25 13:14:30;;;;;;;11.65;5.60;;;;;;;;;;5055836;28;20203;-74
2021/08/25 13:16:56;;;;;;;7.38;5.68;;;;;;;;;;5055900;28;20165;-74
2021/08/25 13:19:22;;;;;;;7.50;5.78;;;;;;;;;;5055812;28;20172;-74
2021/08/25 13:21:48;;;;;;;5.45;4.95;;;;;;;;;;5055750;28;20165;-74
2021/08/25 13:24:14;;;;;;;6.85;5.25;;;;;;;;;;5055731;28;20507;-74
2021/08/25 13:26:40;;;;;;;28.30;5.30;;;;;;;;;;5055572;28;20176;-74
2021/08/25 13:29:06;;;;;;;6.40;4.85;;;;;;;;;;5055642;28;20192;-74
2021/08/25 13:31:32;;;;;;;9.27;5.03;;;;;;;;;;5055571;28;20180;-74
2021/08/25 13:33:58;;;;;;;7.85;5.28;;;;;;;;;;5055479;28;20195;-74
2021/08/25 13:36:25;;;;;;;7.28;5.55;;;;;;;;;;5055551;28;20168;-74
2021/08/25 13:38:51;;;;;;;5.82;5.07;;;;;;;;;;5054109;28;20216;-74
2021/08/25 13:41:18;;;;;;;9.60;5.22;;;;;;;;;;5055390;28;20521;-74
2021/08/25 13:43:43;;;;;;;6.95;5.45;;;;;;;;;;5055302;28;20172;-74
2021/08/25 13:46:10;;;;;;;5.63;4.95;;;;;;;;;;5055250;28;20518;-74
2021/08/25 13:48:36;;;;;;;5.82;4.95;;;;;;;;;;5055207;28;20172;-74
2021/08/25 13:51:02;;;;;;;6.60;4.75;;;;;;;;;;5055153;28;20192;-74
2021/08/25 13:53:28;;;;;;;11.90;5.03;;;;;;;;;;5054880;28;20227;-74
2021/08/25 13:55:54;;;;;;;6.75;5.38;;;;;;;;;;5055101;28;20173;-74
2021/08/25 13:58:20;;;;;;;6.93;5.25;;;;;;;;;;5053760;28;20302;-74
2021/08/25 14:00:46;;;;;;;7.32;5.63;;;;;;;;;;5055086;28;20175;-74
2021/08/25 14:03:12;;;;;;;8.02;6.03;;;;;;;;;;5054980;28;20211;-74
2021/08/25 14:05:38;;;;;;;9.50;6.40;;;;;;;;;;5054971;28;20165;-74
2021/08/25 14:08:05;;;;;;;7.85;5.38;;;;;;;;;;5053609;28;20176;-74
2021/08/25 14:10:31;;;;;;;8.18;5.75;;;;;;;;;;5054844;28;20215;-74
2021/08/25 14:12:57;;;;;;;6.75;5.45;;;;;;;;;;5054760;28;20169;-74
2021/08/25 14:15:23;;;;;;;7.60;5.13;;;;;;;;;;5054714;28;20211;-74
2021/08/25 14:17:49;;;;;;;8.90;5.32;;;;;;;;;;5053724;28;20168;-74
2021/08/25 14:20:15;;;;;;;7.65;5.88;;;;;;;;;;5054688;28;20172;-74
2021/08/25 14:22:44;;;;;;;4.70;4.28;;;;;;;;;;5054548;28;20351;-74
2021/08/25 14:25:10;;;;;;;6.53;4.60;;;;;;;;;;5054545;28;20565;-74
2021/08/25 14:27:36;;;;;;;5.85;4.85;;;;;;;;;;5054502;28;20211;-74
2021/08/25 14:30:02;;;;;;;10.20;6.07;;;;;;;;;;5054466;28;20571;-74
2021/08/25 14:32:28;;;;;;;5.45;4.95;;;;;;;;;;5054382;28;20169;-74
2021/08/25 14:34:54;;;;;;;7.57;4.68;;;;;;;;;;5054293;28;20204;-74
2021/08/25 14:37:20;;;;;;;5.85;4.47;;;;;;;;;;5054252;28;20172;-74
2021/08/25 14:39:46;;;;;;;6.78;4.32;;;;;;;;;;5054091;28;20676;-74
2021/08/25 14:42:12;;;;;;;5.63;4.63;;;;;;;;;;5054115;28;20164;-74
2021/08/25 14:44:38;;;;;;;5.72;4.80;;;;;;;;;;5054453;28;20629;-74
2021/08/25 14:47:04;;;;;;;5.88;5.38;;;;;;;;;;5054132;28;20168;-74
2021/08/25 14:49:30;;;;;;;8.75;5.88;;;;;;;;;;5054179;28;20192;-74
2021/08/25 14:51:56;;;;;;;5.25;4.38;;;;;;;;;;5053946;28;20630;-74
2021/08/25 14:54:22;;;;;;;5.80;3.70;;;;;;;;;;5053752;28;20303;-74
2021/08/25 14:56:49;;;;;;;6.65;4.00;;;;;;;;;;5054020;28;20171;-74
2021/08/25 14:59:15;;;;;;;5.85;3.80;;;;;;;;;;5053949;28;20299;-74
2021/08/25 15:01:41;;;;;;;7.05;4.35;;;;;;;;;;5053889;28;20196;-74
2021/08/25 15:04:07;;;;;;;7.10;4.05;;;;;;;;;;5052695;28;20165;-74
2021/08/25 15:06:36;;;;;;;4.30;3.90;;;;;;;;;;5053716;28;20173;-74
2021/08/25 15:09:03;;;;;;;7.43;4.28;;;;;;;;;;5053709;28;20168;-75
2021/08/25 15:11:29;;;;;;;7.40;4.68;;;;;;;;;;5053668;28;20203;-74
2021/08/25 15:13:55;;;;;;;7.47;4.30;;;;;;;;;;5053499;28;20220;-75
2021/08/25 15:16:25;;;;;;;6.57;4.40;;;;;;;;;;5053631;28;20191;-75
2021/08/25 15:18:51;;;;;;;5.05;4.38;;;;;;;;;;5053489;28;20574;-74
2021/08/25 15:21:18;;;;;;;5.43;3.42;;;;;;;;;;5052149;28;20707;-74
2021/08/25 15:23:45;;;;;;;6.15;5.60;;;;;;;;;;5053363;28;20200;-74
2021/08/25 15:26:11;;;;;;;4.82;4.20;;;;;;;;;;5052157;28;20531;-74
2021/08/25 15:28:37;;;;;;;8.43;4.18;;;;;;;;;;5053132;28;20168;-74
2021/08/25 15:31:03;;;;;;;4.60;3.85;;;;;;;;;;5053313;28;20626;-74
2021/08/25 15:33:29;;;;;;;4.95;4.10;;;;;;;;;;5053293;28;20260;-74
2021/08/25 15:35:55;;;;;;;6.97;3.90;;;;;;;;;;5053255;28;20192;-74
2021/08/25 15:38:21;;;;;;;3.95;3.55;;;;;;;;;;5051793;28;20558;-73
2021/08/25 15:40:47;;;;;;;4.97;4.47;;;;;;;;;;5051891;28;20177;-74
2021/08/25 15:43:13;;;;;;;8.15;3.80;;;;;;;;;;5051681;28;20526;-74
2021/08/25 15:45:39;;;;;;;7.55;4.00;;;;;;;;;;5052047;28;20176;-74
2021/08/25 15:48:05;;;;;;;4.72;3.90;;;;;;;;;;5053134;28;20355;-74
2021/08/25 15:50:31;;;;;;;3.63;3.22;;;;;;;;;;5053017;28;20533;-74
2021/08/25 15:52:57;;;;;;;9.93;4.45;;;;;;;;;;5051847;28;20173;-73
2021/08/25 15:55:23;;;;;;;5.90;3.55;;;;;;;;;;5053168;28;20224;-74
2021/08/25 15:57:49;;;;;;;5.28;3.78;;;;;;;;;;5053102;28;20172;-74
2021/08/25 16:00:15;;;;;;;6.65;4.25;;;;;;;;;;5053053;28;20633;-74
2021/08/25 16:02:41;;;;;;;6.00;4.85;;;;;;;;;;5053031;28;20172;-74
2021/08/25 16:05:07;;;;;;;8.55;4.00;;;;;;;;;;5052895;28;20196;-73
2021/08/25 16:07:33;;;;;;;4.03;3.63;;;;;;;;;;5053045;28;20165;-73
2021/08/25 16:09:59;;;;;;;4.75;3.72;;;;;;;;;;5052972;28;20642;-73
2021/08/25 16:12:25;;;;;;;4.43;3.70;;;;;;;;;;5052981;28;20172;-74
2021/08/25 16:14:51;;;;;;;5.57;3.78;;;;;;;;;;5052901;28;20196;-74
2021/08/25 16:17:17;;;;;;;7.95;3.45;;;;;;;;;;5052807;28;20255;-74
2021/08/25 16:19:43;;;;;;;4.75;3.70;;;;;;;;;;5051573;28;20222;-74
2021/08/25 16:22:10;;;;;;;4.35;3.72;;;;;;;;;;5052852;28;20165;-74
2021/08/25 16:24:37;;;;;;;4.90;3.47;;;;;;;;;;5052751;28;20224;-73
2021/08/25 16:27:03;;;;;;;4.68;4.05;;;;;;;;;;5052742;28;20222;-74
2021/08/25 16:29:29;;;;;;;5.15;4.25;;;;;;;;;;5052732;28;20247;-73
2021/08/25 16:31:54;;;;;;;6.35;4.20;;;;;;;;;;5052710;28;20223;-74
2021/08/25 16:34:20;;;;;;;4.78;3.47;;;;;;;;;;5052757;28;20187;-74
2021/08/25 16:36:46;;;;;;;4.75;3.70;;;;;;;;;;5051499;28;20180;-74
2021/08/25 16:39:12;;;;;;;3.80;3.33;;;;;;;;;;5052735;28;20679;-74
2021/08/25 16:41:38;;;;;;;5.00;3.83;;;;;;;;;;5055342;28;20249;-74
2021/08/25 16:44:04;;;;;;;3.85;3.47;;;;;;;;;;5056429;28;20192;-74
2021/08/25 16:46:30;;;;;;;4.15;3.50;;;;;;;;;;5056454;28;20173;-73
2021/08/25 16:48:56;;;;;;;3.83;3.13;;;;;;;;;;5056381;28;20160;-73
2021/08/25 16:51:22;;;;;;;3.67;3.33;;;;;;;;;;5056401;28;20172;-73
2021/08/25 16:53:48;;;;;;;7.13;3.70;;;;;;;;;;5056102;28;20308;-73
2021/08/25 16:56:14;;;;;;;11.60;3.53;;;;;;;;;;5056248;28;20565;-73
2021/08/25 16:58:40;;;;;;;4.50;3.28;;;;;;;;;;5056215;28;20172;-74
2021/08/25 17:01:06;;;;;;;8.50;3.35;;;;;;;;;;5056056;28;20168;-73
2021/08/25 17:03:32;;;;;;;5.53;4.20;;;;;;;;;;5056055;28;20637;-74
2021/08/25 17:05:58;;;;;;;3.53;3.22;;;;;;;;;;5056020;28;20165;-74
2021/08/25 17:08:25;;;;;;;3.95;3.50;;;;;;;;;;5056047;28;20518;-74
2021/08/25 17:10:51;;;;;;;4.57;4.07;;;;;;;;;;5055841;28;20184;-73
2021/08/25 17:13:17;;;;;;;4.70;4.10;;;;;;;;;;5054431;28;20168;-74
2021/08/25 17:15:43;;;;;;;8.38;4.28;;;;;;;;;;5053339;28;20179;-73
2021/08/25 17:18:09;;;;;;;6.28;4.38;;;;;;;;;;5055713;28;20568;-74
2021/08/25 17:20:36;;;;;;;10.77;4.82;;;;;;;;;;5055692;28;20203;-73
2021/08/25 17:23:02;;;;;;;5.80;4.28;;;;;;;;;;5055691;28;20255;-74
2021/08/25 17:25:28;;;;;;;9.75;4.20;;;;;;;;;;5055554;28;20297;-73
2021/08/25 17:27:54;;;;;;;5.70;4.18;;;;;;;;;;5054317;28;20172;-73
2021/08/25 17:30:20;;;;;;;5.13;4.35;;;;;;;;;;5055414;28;20168;-74
2021/08/25 17:32:46;;;;;;;6.68;4.32;;;;;;;;;;5055496;28;20172;-74
2021/08/25 17:35:12;;;;;;;4.45;4.05;;;;;;;;;;5055338;28;20172;-74
2021/08/25 17:37:40;;;;;;;5.38;4.60;;;;;;;;;;5055364;28;20168;-72
2021/08/25 17:40:06;;;;;;;5.53;3.83;;;;;;;;;;5055279;28;20660;-72
2021/08/25 17:42:32;;;;;;;6.35;4.75;;;;;;;;;;5055275;28;20204;-73
2021/08/25 17:44:58;;;;;;;6.20;4.45;;;;;;;;;;5055093;28;20239;-73
2021/08/25 17:47:24;;;;;;;5.93;5.18;;;;;;;;;;5055173;28;20172;-73
2021/08/25 17:49:50;;;;;;;8.25;4.55;;;;;;;;;;5055350;28;20165;-73
2021/08/25 17:52:16;;;;;;;6.32;4.55;;;;;;;;;;5054981;28;20664;-73
2021/08/25 17:54:42;;;;;;;6.07;4.63;;;;;;;;;;5054956;28;20747;-73
2021/08/25 17:57:08;;;;;;;5.68;5.18;;;;;;;;;;5055104;28;20247;-72
2021/08/25 17:59:34;;;;;;;5.03;4.35;;;;;;;;;;5054932;28;20638;-72
2021/08/25 18:02:00;;;;;;;7.55;5.07;;;;;;;;;;5054928;28;20172;-73
2021/08/25 18:04:27;;;;;;;4.75;4.35;;;;;;;;;;5054816;28;20200;-73
2021/08/25 18:06:54;;;;;;;5.63;5.05;;;;;;;;;;5054885;28;20290;-72
2021/08/25 18:09:20;;;;;;;5.10;4.60;;;;;;;;;;5053595;28;20219;-73
2021/08/25 18:11:46;;;;;;;5.22;4.72;;;;;;;;;;5054762;28;20652;-73
2021/08/25 18:14:12;;;;;;;5.63;5.00;;;;;;;;;;5054641;28;20666;-73
2021/08/25 18:16:38;;;;;;;5.15;4.75;;;;;;;;;;5053382;28;20195;-73
2021/08/25 18:19:04;;;;;;;5.25;4.85;;;;;;;;;;5054522;28;20172;-73
2021/08/25 18:21:38;;;;;;;5.03;4.63;;;;;;;;;;5054522;28;20207;-72
2021/08/25 18:24:04;;;;;;;5.25;4.78;;;;;;;;;;5054476;28;20185;-73
2021/08/25 18:26:30;;;;;;;5.60;4.18;;;;;;;;;;5054418;28;20172;-73
